Terminal Aerodrome Forecast
Issued by NWS

Home | Current Version | Previous Version | Text Only | Print | Product List | Glossary On
Versions: 1 2 3 4 5 6 7 8 9 10 11
494
FTUS46 KMTR 232159 AAB
TAFSJC
TAF AMD
KSJC 232159Z 2322/2418 31016KT P6SM FEW035 SCT150
     FM240300 31010KT P6SM FEW025 SCT200
     FM240700 31006KT P6SM BKN020 BKN120
     FM241400 28010KT P6SM BKN100=

USA.gov is the U.S. government's official web portal to all federal, state and local government web resources and services.